sensor_id;sensor_type;location;lat;lon;timestamp;temperature;humidity
3868;DHT22;1949;48.152;11.528;2023-07-29T00:01:41;22.70;55.10
3868;DHT22;1949;48.152;11.528;2023-07-29T00:04:09;22.70;55.10
3868;DHT22;1949;48.152;11.528;2023-07-29T00:06:36;22.60;55.10
3868;DHT22;1949;48.152;11.528;2023-07-29T00:09:07;22.60;55.10
3868;DHT22;1949;48.152;11.528;2023-07-29T00:11:32;22.60;55.10
3868;DHT22;1949;48.152;11.528;2023-07-29T00:14:01;22.60;55.20
3868;DHT22;1949;48.152;11.528;2023-07-29T00:16:43;22.60;55.80
3868;DHT22;1949;48.152;11.528;2023-07-29T00:19:15;22.60;55.20
3868;DHT22;1949;48.152;11.528;2023-07-29T00:21:43;22.50;55.10
3868;DHT22;1949;48.152;11.528;2023-07-29T00:24:17;22.50;55.00
3868;DHT22;1949;48.152;11.528;2023-07-29T00:26:44;22.50;55.20
3868;DHT22;1949;48.152;11.528;2023-07-29T00:29:14;22.50;55.20
3868;DHT22;1949;48.152;11.528;2023-07-29T00:31:40;22.40;55.20
3868;DHT22;1949;48.152;11.528;2023-07-29T00:34:07;22.40;55.20
3868;DHT22;1949;48.152;11.528;2023-07-29T00:36:35;22.50;55.30
3868;DHT22;1949;48.152;11.528;2023-07-29T00:39:03;22.50;55.30
3868;DHT22;1949;48.152;11.528;2023-07-29T00:41:31;22.50;55.30
3868;DHT22;1949;48.152;11.528;2023-07-29T00:43:57;22.50;55.30
3868;DHT22;1949;48.152;11.528;2023-07-29T00:46:23;22.60;55.30
3868;DHT22;1949;48.152;11.528;2023-07-29T00:48:49;22.60;55.20
3868;DHT22;1949;48.152;11.528;2023-07-29T00:51:15;22.60;55.10
3868;DHT22;1949;48.152;11.528;2023-07-29T00:53:41;22.60;55.10
3868;DHT22;1949;48.152;11.528;2023-07-29T00:56:07;22.60;55.00
3868;DHT22;1949;48.152;11.528;2023-07-29T00:58:33;22.60;55.00
3868;DHT22;1949;48.152;11.528;2023-07-29T01:00:59;22.60;55.10
3868;DHT22;1949;48.152;11.528;2023-07-29T01:03:26;22.60;55.10
3868;DHT22;1949;48.152;11.528;2023-07-29T01:08:58;22.60;55.10
3868;DHT22;1949;48.152;11.528;2023-07-29T01:14:39;22.60;54.80
3868;DHT22;1949;48.152;11.528;2023-07-29T01:17:14;22.60;54.80
3868;DHT22;1949;48.152;11.528;2023-07-29T01:22:25;22.60;54.90
3868;DHT22;1949;48.152;11.528;2023-07-29T01:24:58;22.60;55.00
3868;DHT22;1949;48.152;11.528;2023-07-29T01:27:24;22.60;55.00
3868;DHT22;1949;48.152;11.528;2023-07-29T01:29:50;22.60;55.00
3868;DHT22;1949;48.152;11.528;2023-07-29T01:35:23;22.60;54.80
3868;DHT22;1949;48.152;11.528;2023-07-29T01:38:19;22.60;54.90
3868;DHT22;1949;48.152;11.528;2023-07-29T01:40:50;22.60;54.80
3868;DHT22;1949;48.152;11.528;2023-07-29T01:43:19;22.50;54.80
3868;DHT22;1949;48.152;11.528;2023-07-29T01:45:51;22.50;55.00
3868;DHT22;1949;48.152;11.528;2023-07-29T01:48:19;22.50;55.00
3868;DHT22;1949;48.152;11.528;2023-07-29T01:50:48;22.50;55.10
3868;DHT22;1949;48.152;11.528;2023-07-29T01:53:15;22.60;55.10
3868;DHT22;1949;48.152;11.528;2023-07-29T01:55:43;22.60;55.10
3868;DHT22;1949;48.152;11.528;2023-07-29T01:58:10;22.60;55.00
3868;DHT22;1949;48.152;11.528;2023-07-29T02:00:36;22.60;54.90
3868;DHT22;1949;48.152;11.528;2023-07-29T02:03:03;22.60;54.90
3868;DHT22;1949;48.152;11.528;2023-07-29T02:05:30;22.60;54.90
3868;DHT22;1949;48.152;11.528;2023-07-29T02:07:57;22.60;55.00
3868;DHT22;1949;48.152;11.528;2023-07-29T02:10:23;22.60;55.00
3868;DHT22;1949;48.152;11.528;2023-07-29T02:12:48;22.60;55.00
3868;DHT22;1949;48.152;11.528;2023-07-29T02:15:14;22.60;55.00
3868;DHT22;1949;48.152;11.528;2023-07-29T02:17:42;22.60;55.00
3868;DHT22;1949;48.152;11.528;2023-07-29T02:20:08;22.60;55.00
3868;DHT22;1949;48.152;11.528;2023-07-29T02:22:34;22.60;54.90
3868;DHT22;1949;48.152;11.528;2023-07-29T02:25:00;22.60;54.90
3868;DHT22;1949;48.152;11.528;2023-07-29T02:27:28;22.60;54.80
3868;DHT22;1949;48.152;11.528;2023-07-29T02:29:54;22.60;54.70
3868;DHT22;1949;48.152;11.528;2023-07-29T02:32:20;22.60;54.70
3868;DHT22;1949;48.152;11.528;2023-07-29T02:34:46;22.60;54.70
3868;DHT22;1949;48.152;11.528;2023-07-29T02:37:12;22.50;54.70
3868;DHT22;1949;48.152;11.528;2023-07-29T02:39:38;22.50;54.70
3868;DHT22;1949;48.152;11.528;2023-07-29T02:42:05;22.40;54.60
3868;DHT22;1949;48.152;11.528;2023-07-29T02:44:31;22.40;54.60
3868;DHT22;1949;48.152;11.528;2023-07-29T02:46:56;22.30;54.80
3868;DHT22;1949;48.152;11.528;2023-07-29T02:49:23;22.20;54.80
3868;DHT22;1949;48.152;11.528;2023-07-29T02:51:49;22.20;55.00
3868;DHT22;1949;48.152;11.528;2023-07-29T02:54:15;22.10;55.00
3868;DHT22;1949;48.152;11.528;2023-07-29T02:56:40;22.10;55.10
3868;DHT22;1949;48.152;11.528;2023-07-29T02:59:06;22.00;55.10
3868;DHT22;1949;48.152;11.528;2023-07-29T03:01:32;22.00;55.10
3868;DHT22;1949;48.152;11.528;2023-07-29T03:03:58;22.00;55.10
3868;DHT22;1949;48.152;11.528;2023-07-29T03:06:24;22.00;55.30
3868;DHT22;1949;48.152;11.528;2023-07-29T03:08:50;21.90;55.30
3868;DHT22;1949;48.152;11.528;2023-07-29T03:11:16;21.90;55.20
3868;DHT22;1949;48.152;11.528;2023-07-29T03:13:42;22.00;55.30
3868;DHT22;1949;48.152;11.528;2023-07-29T03:16:13;21.90;55.20
3868;DHT22;1949;48.152;11.528;2023-07-29T03:18:41;22.00;55.30
3868;DHT22;1949;48.152;11.528;2023-07-29T03:21:07;22.00;55.40
3868;DHT22;1949;48.152;11.528;2023-07-29T03:23:35;22.00;55.30
3868;DHT22;1949;48.152;11.528;2023-07-29T03:26:07;22.00;55.10
3868;DHT22;1949;48.152;11.528;2023-07-29T03:28:38;21.90;55.00
3868;DHT22;1949;48.152;11.528;2023-07-29T03:31:05;21.90;55.10
3868;DHT22;1949;48.152;11.528;2023-07-29T03:33:30;21.90;55.10
3868;DHT22;1949;48.152;11.528;2023-07-29T03:35:56;21.90;55.20
3868;DHT22;1949;48.152;11.528;2023-07-29T03:38:22;21.90;55.30
3868;DHT22;1949;48.152;11.528;2023-07-29T03:40:48;21.90;55.20
3868;DHT22;1949;48.152;11.528;2023-07-29T03:43:14;21.90;55.10
3868;DHT22;1949;48.152;11.528;2023-07-29T03:45:42;21.90;55.00
3868;DHT22;1949;48.152;11.528;2023-07-29T03:48:08;21.90;55.10
3868;DHT22;1949;48.152;11.528;2023-07-29T03:50:35;21.90;55.10
3868;DHT22;1949;48.152;11.528;2023-07-29T03:53:03;21.90;55.10
3868;DHT22;1949;48.152;11.528;2023-07-29T03:55:28;21.90;55.20
3868;DHT22;1949;48.152;11.528;2023-07-29T03:57:58;21.90;55.10
3868;DHT22;1949;48.152;11.528;2023-07-29T04:00:26;21.90;55.10
3868;DHT22;1949;48.152;11.528;2023-07-29T04:02:54;21.90;55.10
3868;DHT22;1949;48.152;11.528;2023-07-29T04:05:20;21.80;55.00
3868;DHT22;1949;48.152;11.528;2023-07-29T04:07:46;21.90;55.10
3868;DHT22;1949;48.152;11.528;2023-07-29T04:10:12;21.80;55.00
3868;DHT22;1949;48.152;11.528;2023-07-29T04:12:48;21.80;55.00
3868;DHT22;1949;48.152;11.528;2023-07-29T04:15:14;21.80;55.20
3868;DHT22;1949;48.152;11.528;2023-07-29T04:17:39;21.80;55.10
3868;DHT22;1949;48.152;11.528;2023-07-29T04:20:05;21.80;55.10
3868;DHT22;1949;48.152;11.528;2023-07-29T04:22:31;21.80;55.20
3868;DHT22;1949;48.152;11.528;2023-07-29T04:24:58;21.80;55.20
3868;DHT22;1949;48.152;11.528;2023-07-29T04:27:25;21.80;55.30
3868;DHT22;1949;48.152;11.528;2023-07-29T04:29:52;21.80;55.30
3868;DHT22;1949;48.152;11.528;2023-07-29T04:32:19;21.80;55.30
3868;DHT22;1949;48.152;11.528;2023-07-29T04:34:48;21.80;55.20
3868;DHT22;1949;48.152;11.528;2023-07-29T04:37:15;21.80;55.40
3868;DHT22;1949;48.152;11.528;2023-07-29T04:39:42;21.80;55.30
3868;DHT22;1949;48.152;11.528;2023-07-29T04:42:13;21.70;55.30
3868;DHT22;1949;48.152;11.528;2023-07-29T04:44:42;21.80;55.40
3868;DHT22;1949;48.152;11.528;2023-07-29T04:47:09;21.80;55.30
3868;DHT22;1949;48.152;11.528;2023-07-29T04:49:35;21.80;55.30
3868;DHT22;1949;48.152;11.528;2023-07-29T04:52:02;21.80;55.40
3868;DHT22;1949;48.152;11.528;2023-07-29T04:54:28;21.80;55.40
3868;DHT22;1949;48.152;11.528;2023-07-29T04:56:54;21.70;55.40
3868;DHT22;1949;48.152;11.528;2023-07-29T04:59:20;21.70;55.30
3868;DHT22;1949;48.152;11.528;2023-07-29T05:01:45;21.70;55.40
3868;DHT22;1949;48.152;11.528;2023-07-29T05:04:12;21.70;55.40
3868;DHT22;1949;48.152;11.528;2023-07-29T05:06:38;21.70;55.50
3868;DHT22;1949;48.152;11.528;2023-07-29T05:09:17;21.70;55.60
3868;DHT22;1949;48.152;11.528;2023-07-29T05:11:45;21.70;55.60
3868;DHT22;1949;48.152;11.528;2023-07-29T05:14:13;21.70;55.60
3868;DHT22;1949;48.152;11.528;2023-07-29T05:16:39;21.70;55.60
3868;DHT22;1949;48.152;11.528;2023-07-29T05:19:05;21.70;55.70
3868;DHT22;1949;48.152;11.528;2023-07-29T05:21:32;21.70;55.80
3868;DHT22;1949;48.152;11.528;2023-07-29T05:23:58;21.70;55.80
3868;DHT22;1949;48.152;11.528;2023-07-29T05:26:24;21.80;55.80
3868;DHT22;1949;48.152;11.528;2023-07-29T05:28:49;21.80;55.70
3868;DHT22;1949;48.152;11.528;2023-07-29T05:31:22;21.80;55.60
3868;DHT22;1949;48.152;11.528;2023-07-29T05:33:48;21.80;55.60
3868;DHT22;1949;48.152;11.528;2023-07-29T05:36:14;21.80;55.60
3868;DHT22;1949;48.152;11.528;2023-07-29T05:38:41;21.80;55.60
3868;DHT22;1949;48.152;11.528;2023-07-29T05:41:15;21.90;55.70
3868;DHT22;1949;48.152;11.528;2023-07-29T05:43:40;21.90;55.60
3868;DHT22;1949;48.152;11.528;2023-07-29T05:46:09;21.90;55.60
3868;DHT22;1949;48.152;11.528;2023-07-29T05:48:49;22.00;55.70
3868;DHT22;1949;48.152;11.528;2023-07-29T05:51:19;22.00;55.50
3868;DHT22;1949;48.152;11.528;2023-07-29T05:53:48;22.00;55.60
3868;DHT22;1949;48.152;11.528;2023-07-29T05:59:04;22.00;55.60
3868;DHT22;1949;48.152;11.528;2023-07-29T06:01:30;22.00;56.10
3868;DHT22;1949;48.152;11.528;2023-07-29T06:03:57;22.00;55.60
3868;DHT22;1949;48.152;11.528;2023-07-29T06:06:22;22.00;55.60
3868;DHT22;1949;48.152;11.528;2023-07-29T06:08:49;21.90;55.70
3868;DHT22;1949;48.152;11.528;2023-07-29T06:11:15;21.90;55.80
3868;DHT22;1949;48.152;11.528;2023-07-29T06:13:41;21.90;55.90
3868;DHT22;1949;48.152;11.528;2023-07-29T06:16:07;22.00;55.90
3868;DHT22;1949;48.152;11.528;2023-07-29T06:18:32;22.00;56.60
3868;DHT22;1949;48.152;11.528;2023-07-29T06:20:58;22.10;56.00
3868;DHT22;1949;48.152;11.528;2023-07-29T06:23:24;22.10;56.00
3868;DHT22;1949;48.152;11.528;2023-07-29T06:25:50;22.10;56.00
3868;DHT22;1949;48.152;11.528;2023-07-29T06:28:15;22.10;56.10
3868;DHT22;1949;48.152;11.528;2023-07-29T06:30:41;22.10;56.20
3868;DHT22;1949;48.152;11.528;2023-07-29T06:33:07;22.10;56.20
3868;DHT22;1949;48.152;11.528;2023-07-29T06:35:33;22.10;56.30
3868;DHT22;1949;48.152;11.528;2023-07-29T06:38:04;22.10;56.40
3868;DHT22;1949;48.152;11.528;2023-07-29T06:40:31;22.10;56.40
3868;DHT22;1949;48.152;11.528;2023-07-29T06:42:57;22.10;56.30
3868;DHT22;1949;48.152;11.528;2023-07-29T06:45:24;22.10;56.30
3868;DHT22;1949;48.152;11.528;2023-07-29T06:47:49;22.10;56.40
3868;DHT22;1949;48.152;11.528;2023-07-29T06:50:15;22.10;56.40
3868;DHT22;1949;48.152;11.528;2023-07-29T06:52:47;22.00;56.50
3868;DHT22;1949;48.152;11.528;2023-07-29T06:55:13;22.00;56.60
3868;DHT22;1949;48.152;11.528;2023-07-29T06:57:38;22.00;56.60
3868;DHT22;1949;48.152;11.528;2023-07-29T07:00:04;22.00;56.80
3868;DHT22;1949;48.152;11.528;2023-07-29T07:02:30;22.00;57.00
3868;DHT22;1949;48.152;11.528;2023-07-29T07:04:57;22.00;57.00
3868;DHT22;1949;48.152;11.528;2023-07-29T07:07:24;22.10;57.20
3868;DHT22;1949;48.152;11.528;2023-07-29T07:09:51;22.10;57.10
3868;DHT22;1949;48.152;11.528;2023-07-29T07:12:22;22.10;57.00
3868;DHT22;1949;48.152;11.528;2023-07-29T07:14:49;22.10;57.20
3868;DHT22;1949;48.152;11.528;2023-07-29T07:17:16;22.10;57.10
3868;DHT22;1949;48.152;11.528;2023-07-29T07:19:48;22.10;57.10
3868;DHT22;1949;48.152;11.528;2023-07-29T07:22:16;22.10;57.20
3868;DHT22;1949;48.152;11.528;2023-07-29T07:24:43;22.10;57.30
3868;DHT22;1949;48.152;11.528;2023-07-29T07:27:10;22.10;57.40
3868;DHT22;1949;48.152;11.528;2023-07-29T07:29:36;22.10;57.60
3868;DHT22;1949;48.152;11.528;2023-07-29T07:32:05;22.00;57.40
3868;DHT22;1949;48.152;11.528;2023-07-29T07:34:33;22.00;57.50
3868;DHT22;1949;48.152;11.528;2023-07-29T07:37:01;22.10;57.70
3868;DHT22;1949;48.152;11.528;2023-07-29T07:39:31;22.00;57.60
3868;DHT22;1949;48.152;11.528;2023-07-29T07:41:57;22.10;57.70
3868;DHT22;1949;48.152;11.528;2023-07-29T07:44:28;22.10;57.60
3868;DHT22;1949;48.152;11.528;2023-07-29T07:46:53;22.10;57.60
3868;DHT22;1949;48.152;11.528;2023-07-29T07:49:19;22.20;57.80
3868;DHT22;1949;48.152;11.528;2023-07-29T07:51:45;22.20;57.80
3868;DHT22;1949;48.152;11.528;2023-07-29T07:54:13;22.20;57.80
3868;DHT22;1949;48.152;11.528;2023-07-29T07:56:38;22.30;57.80
3868;DHT22;1949;48.152;11.528;2023-07-29T07:59:07;22.30;57.80
3868;DHT22;1949;48.152;11.528;2023-07-29T08:01:35;22.30;57.80
3868;DHT22;1949;48.152;11.528;2023-07-29T08:04:05;22.30;57.80
3868;DHT22;1949;48.152;11.528;2023-07-29T08:06:33;22.30;57.80
3868;DHT22;1949;48.152;11.528;2023-07-29T08:09:08;22.30;57.80
3868;DHT22;1949;48.152;11.528;2023-07-29T08:11:34;22.30;57.80
3868;DHT22;1949;48.152;11.528;2023-07-29T08:13:59;22.40;57.90
3868;DHT22;1949;48.152;11.528;2023-07-29T08:16:28;22.40;57.90
3868;DHT22;1949;48.152;11.528;2023-07-29T08:18:54;22.40;57.90
3868;DHT22;1949;48.152;11.528;2023-07-29T08:21:26;22.30;57.70
3868;DHT22;1949;48.152;11.528;2023-07-29T08:23:56;22.30;57.90
3868;DHT22;1949;48.152;11.528;2023-07-29T08:26:22;22.40;58.00
3868;DHT22;1949;48.152;11.528;2023-07-29T08:28:55;22.40;58.10
3868;DHT22;1949;48.152;11.528;2023-07-29T08:31:21;22.40;58.10
3868;DHT22;1949;48.152;11.528;2023-07-29T08:33:57;22.40;58.20
3868;DHT22;1949;48.152;11.528;2023-07-29T08:36:24;22.50;58.20
3868;DHT22;1949;48.152;11.528;2023-07-29T08:38:51;22.50;57.90
3868;DHT22;1949;48.152;11.528;2023-07-29T08:41:21;22.50;58.00
3868;DHT22;1949;48.152;11.528;2023-07-29T08:46:27;22.50;58.10
3868;DHT22;1949;48.152;11.528;2023-07-29T08:48:55;22.50;58.10
3868;DHT22;1949;48.152;11.528;2023-07-29T08:51:23;22.60;58.00
3868;DHT22;1949;48.152;11.528;2023-07-29T08:53:51;22.60;58.10
3868;DHT22;1949;48.152;11.528;2023-07-29T08:56:19;22.60;58.10
3868;DHT22;1949;48.152;11.528;2023-07-29T08:58:46;22.60;58.00
3868;DHT22;1949;48.152;11.528;2023-07-29T09:01:12;22.60;58.00
3868;DHT22;1949;48.152;11.528;2023-07-29T09:03:41;22.70;58.10
3868;DHT22;1949;48.152;11.528;2023-07-29T09:06:07;22.70;57.90
3868;DHT22;1949;48.152;11.528;2023-07-29T09:08:36;22.70;57.90
3868;DHT22;1949;48.152;11.528;2023-07-29T09:11:08;22.80;58.10
3868;DHT22;1949;48.152;11.528;2023-07-29T09:13:34;22.80;58.00
3868;DHT22;1949;48.152;11.528;2023-07-29T09:16:03;22.90;58.00
3868;DHT22;1949;48.152;11.528;2023-07-29T09:18:31;22.90;58.00
3868;DHT22;1949;48.152;11.528;2023-07-29T09:20:59;22.90;58.10
3868;DHT22;1949;48.152;11.528;2023-07-29T09:23:26;22.90;58.00
3868;DHT22;1949;48.152;11.528;2023-07-29T09:26:03;23.00;58.20
3868;DHT22;1949;48.152;11.528;2023-07-29T09:28:34;23.00;58.00
3868;DHT22;1949;48.152;11.528;2023-07-29T09:31:01;23.10;58.00
3868;DHT22;1949;48.152;11.528;2023-07-29T09:33:35;23.10;58.00
3868;DHT22;1949;48.152;11.528;2023-07-29T09:36:13;23.20;58.00
3868;DHT22;1949;48.152;11.528;2023-07-29T09:38:39;23.30;58.10
3868;DHT22;1949;48.152;11.528;2023-07-29T09:41:07;23.30;57.90
3868;DHT22;1949;48.152;11.528;2023-07-29T09:43:35;23.40;58.10
3868;DHT22;1949;48.152;11.528;2023-07-29T09:46:05;23.50;57.80
3868;DHT22;1949;48.152;11.528;2023-07-29T09:48:33;23.50;57.50
3868;DHT22;1949;48.152;11.528;2023-07-29T09:51:10;23.60;57.50
3868;DHT22;1949;48.152;11.528;2023-07-29T09:53:47;23.70;57.50
3868;DHT22;1949;48.152;11.528;2023-07-29T09:56:26;23.80;57.40
3868;DHT22;1949;48.152;11.528;2023-07-29T09:58:56;23.90;57.10
3868;DHT22;1949;48.152;11.528;2023-07-29T10:01:25;24.00;57.00
3868;DHT22;1949;48.152;11.528;2023-07-29T10:03:52;24.00;56.80
3868;DHT22;1949;48.152;11.528;2023-07-29T10:06:18;24.10;56.80
3868;DHT22;1949;48.152;11.528;2023-07-29T10:08:47;24.10;56.50
3868;DHT22;1949;48.152;11.528;2023-07-29T10:11:15;24.20;56.40
3868;DHT22;1949;48.152;11.528;2023-07-29T10:13:42;24.20;56.30
3868;DHT22;1949;48.152;11.528;2023-07-29T10:16:12;24.20;56.20
3868;DHT22;1949;48.152;11.528;2023-07-29T10:18:40;24.20;56.10
3868;DHT22;1949;48.152;11.528;2023-07-29T10:21:08;24.30;56.20
3868;DHT22;1949;48.152;11.528;2023-07-29T10:23:39;24.30;56.10
3868;DHT22;1949;48.152;11.528;2023-07-29T10:26:13;24.40;56.10
3868;DHT22;1949;48.152;11.528;2023-07-29T10:28:47;24.40;56.00
3868;DHT22;1949;48.152;11.528;2023-07-29T10:31:17;24.50;56.10
3868;DHT22;1949;48.152;11.528;2023-07-29T10:33:49;24.50;55.90
3868;DHT22;1949;48.152;11.528;2023-07-29T10:36:16;24.60;55.70
3868;DHT22;1949;48.152;11.528;2023-07-29T10:38:49;24.70;55.60
3868;DHT22;1949;48.152;11.528;2023-07-29T10:41:16;24.80;55.50
3868;DHT22;1949;48.152;11.528;2023-07-29T10:43:41;24.80;55.30
3868;DHT22;1949;48.152;11.528;2023-07-29T10:46:26;24.90;55.50
3868;DHT22;1949;48.152;11.528;2023-07-29T10:49:06;25.00;55.50
3868;DHT22;1949;48.152;11.528;2023-07-29T10:51:37;25.10;55.20
3868;DHT22;1949;48.152;11.528;2023-07-29T10:54:11;25.10;54.90
3868;DHT22;1949;48.152;11.528;2023-07-29T10:56:48;25.20;54.70
3868;DHT22;1949;48.152;11.528;2023-07-29T11:02:11;25.20;54.40
3868;DHT22;1949;48.152;11.528;2023-07-29T11:04:46;25.30;54.60
3868;DHT22;1949;48.152;11.528;2023-07-29T11:15:22;25.40;54.40
3868;DHT22;1949;48.152;11.528;2023-07-29T11:18:00;25.40;53.50
3868;DHT22;1949;48.152;11.528;2023-07-29T11:20:34;25.30;52.90
3868;DHT22;1949;48.152;11.528;2023-07-29T11:23:02;25.30;52.70
3868;DHT22;1949;48.152;11.528;2023-07-29T11:25:36;25.20;52.50
3868;DHT22;1949;48.152;11.528;2023-07-29T11:28:03;25.10;52.40
3868;DHT22;1949;48.152;11.528;2023-07-29T11:30:30;25.00;52.30
3868;DHT22;1949;48.152;11.528;2023-07-29T11:32:58;25.00;52.40
3868;DHT22;1949;48.152;11.528;2023-07-29T11:35:24;25.00;52.30
3868;DHT22;1949;48.152;11.528;2023-07-29T11:37:54;25.00;52.40
3868;DHT22;1949;48.152;11.528;2023-07-29T11:40:23;24.90;52.20
3868;DHT22;1949;48.152;11.528;2023-07-29T11:42:50;24.90;52.30
3868;DHT22;1949;48.152;11.528;2023-07-29T11:45:16;24.90;52.20
3868;DHT22;1949;48.152;11.528;2023-07-29T11:47:43;24.90;52.20
3868;DHT22;1949;48.152;11.528;2023-07-29T11:50:12;24.90;52.20
3868;DHT22;1949;48.152;11.528;2023-07-29T11:52:43;24.90;52.20
3868;DHT22;1949;48.152;11.528;2023-07-29T11:55:12;24.90;52.20
3868;DHT22;1949;48.152;11.528;2023-07-29T11:57:39;25.00;52.20
3868;DHT22;1949;48.152;11.528;2023-07-29T12:00:08;25.00;52.20
3868;DHT22;1949;48.152;11.528;2023-07-29T12:02:40;25.10;52.20
3868;DHT22;1949;48.152;11.528;2023-07-29T12:05:07;25.20;52.00
3868;DHT22;1949;48.152;11.528;2023-07-29T12:07:37;25.20;51.90
3868;DHT22;1949;48.152;11.528;2023-07-29T12:10:04;25.30;51.90
3868;DHT22;1949;48.152;11.528;2023-07-29T12:12:30;25.30;51.90
3868;DHT22;1949;48.152;11.528;2023-07-29T12:14:56;25.40;51.70
3868;DHT22;1949;48.152;11.528;2023-07-29T12:17:29;25.50;51.80
3868;DHT22;1949;48.152;11.528;2023-07-29T12:19:56;25.60;51.60
3868;DHT22;1949;48.152;11.528;2023-07-29T12:22:28;25.60;51.40
3868;DHT22;1949;48.152;11.528;2023-07-29T12:24:55;25.70;51.40
3868;DHT22;1949;48.152;11.528;2023-07-29T12:27:24;25.80;51.40
3868;DHT22;1949;48.152;11.528;2023-07-29T12:29:52;25.80;51.10
3868;DHT22;1949;48.152;11.528;2023-07-29T12:32:25;25.90;51.20
3868;DHT22;1949;48.152;11.528;2023-07-29T12:34:53;25.90;51.20
3868;DHT22;1949;48.152;11.528;2023-07-29T12:37:20;25.90;51.00
3868;DHT22;1949;48.152;11.528;2023-07-29T12:39:56;25.90;51.00
3868;DHT22;1949;48.152;11.528;2023-07-29T12:42:22;25.90;51.00
3868;DHT22;1949;48.152;11.528;2023-07-29T12:44:52;25.80;51.00
3868;DHT22;1949;48.152;11.528;2023-07-29T12:47:18;25.80;51.10
3868;DHT22;1949;48.152;11.528;2023-07-29T12:49:44;25.70;51.30
3868;DHT22;1949;48.152;11.528;2023-07-29T12:52:12;25.70;51.60
3868;DHT22;1949;48.152;11.528;2023-07-29T12:54:40;25.60;52.00
3868;DHT22;1949;48.152;11.528;2023-07-29T12:57:07;25.60;52.80
3868;DHT22;1949;48.152;11.528;2023-07-29T12:59:40;25.50;52.40
3868;DHT22;1949;48.152;11.528;2023-07-29T13:02:09;25.30;52.30
3868;DHT22;1949;48.152;11.528;2023-07-29T13:04:38;25.20;52.50
3868;DHT22;1949;48.152;11.528;2023-07-29T13:07:05;25.20;52.60
3868;DHT22;1949;48.152;11.528;2023-07-29T13:09:37;25.10;52.80
3868;DHT22;1949;48.152;11.528;2023-07-29T13:12:03;25.00;53.10
3868;DHT22;1949;48.152;11.528;2023-07-29T13:14:31;24.90;53.20
3868;DHT22;1949;48.152;11.528;2023-07-29T13:16:57;24.80;53.40
3868;DHT22;1949;48.152;11.528;2023-07-29T13:19:25;24.80;53.80
3868;DHT22;1949;48.152;11.528;2023-07-29T13:21:51;24.80;54.10
3868;DHT22;1949;48.152;11.528;2023-07-29T13:24:16;24.70;54.10
3868;DHT22;1949;48.152;11.528;2023-07-29T13:26:46;24.70;54.40
3868;DHT22;1949;48.152;11.528;2023-07-29T13:29:12;24.60;54.60
3868;DHT22;1949;48.152;11.528;2023-07-29T13:31:40;24.60;54.80
3868;DHT22;1949;48.152;11.528;2023-07-29T13:34:08;24.60;54.90
3868;DHT22;1949;48.152;11.528;2023-07-29T13:36:38;24.60;55.20
3868;DHT22;1949;48.152;11.528;2023-07-29T13:39:03;24.60;55.20
3868;DHT22;1949;48.152;11.528;2023-07-29T13:41:32;24.60;55.30
3868;DHT22;1949;48.152;11.528;2023-07-29T13:43:59;24.60;55.40
3868;DHT22;1949;48.152;11.528;2023-07-29T13:46:25;24.60;55.50
3868;DHT22;1949;48.152;11.528;2023-07-29T13:48:50;24.70;55.60
3868;DHT22;1949;48.152;11.528;2023-07-29T13:51:16;24.70;55.60
3868;DHT22;1949;48.152;11.528;2023-07-29T13:53:43;24.70;55.60
3868;DHT22;1949;48.152;11.528;2023-07-29T13:56:08;24.70;55.50
3868;DHT22;1949;48.152;11.528;2023-07-29T13:58:36;24.70;55.30
3868;DHT22;1949;48.152;11.528;2023-07-29T14:01:04;24.70;55.30
3868;DHT22;1949;48.152;11.528;2023-07-29T14:03:29;24.70;55.30
3868;DHT22;1949;48.152;11.528;2023-07-29T14:05:55;24.60;55.20
3868;DHT22;1949;48.152;11.528;2023-07-29T14:08:23;24.60;55.20
3868;DHT22;1949;48.152;11.528;2023-07-29T14:10:52;24.60;55.30
3868;DHT22;1949;48.152;11.528;2023-07-29T14:13:19;24.50;55.30
3868;DHT22;1949;48.152;11.528;2023-07-29T14:15:45;24.50;55.40
3868;DHT22;1949;48.152;11.528;2023-07-29T14:18:11;24.50;55.40
3868;DHT22;1949;48.152;11.528;2023-07-29T14:20:36;24.50;55.50
3868;DHT22;1949;48.152;11.528;2023-07-29T14:23:03;24.50;55.60
3868;DHT22;1949;48.152;11.528;2023-07-29T14:25:29;24.50;55.70
3868;DHT22;1949;48.152;11.528;2023-07-29T14:27:58;24.50;55.80
3868;DHT22;1949;48.152;11.528;2023-07-29T14:30:25;24.50;55.80
3868;DHT22;1949;48.152;11.528;2023-07-29T14:32:51;24.50;55.80
3868;DHT22;1949;48.152;11.528;2023-07-29T14:35:19;24.50;55.80
3868;DHT22;1949;48.152;11.528;2023-07-29T14:37:49;24.50;55.90
3868;DHT22;1949;48.152;11.528;2023-07-29T14:40:14;24.50;56.00
3868;DHT22;1949;48.152;11.528;2023-07-29T14:42:41;24.40;56.00
3868;DHT22;1949;48.152;11.528;2023-07-29T14:45:08;24.40;56.00
3868;DHT22;1949;48.152;11.528;2023-07-29T14:47:36;24.40;56.00
3868;DHT22;1949;48.152;11.528;2023-07-29T14:50:02;24.30;55.90
3868;DHT22;1949;48.152;11.528;2023-07-29T14:52:27;24.30;55.90
3868;DHT22;1949;48.152;11.528;2023-07-29T14:54:58;24.30;56.00
3868;DHT22;1949;48.152;11.528;2023-07-29T14:57:26;24.20;55.90
3868;DHT22;1949;48.152;11.528;2023-07-29T14:59:59;24.20;56.00
3868;DHT22;1949;48.152;11.528;2023-07-29T15:02:25;24.20;56.00
3868;DHT22;1949;48.152;11.528;2023-07-29T15:04:54;24.10;56.00
3868;DHT22;1949;48.152;11.528;2023-07-29T15:07:19;24.10;56.00
3868;DHT22;1949;48.152;11.528;2023-07-29T15:09:45;24.10;55.90
3868;DHT22;1949;48.152;11.528;2023-07-29T15:12:11;24.10;55.90
3868;DHT22;1949;48.152;11.528;2023-07-29T15:14:39;24.10;55.90
3868;DHT22;1949;48.152;11.528;2023-07-29T15:17:06;24.00;56.50
3868;DHT22;1949;48.152;11.528;2023-07-29T15:19:33;24.10;56.00
3868;DHT22;1949;48.152;11.528;2023-07-29T15:21:58;24.10;56.00
3868;DHT22;1949;48.152;11.528;2023-07-29T15:24:27;24.10;56.10
3868;DHT22;1949;48.152;11.528;2023-07-29T15:26:55;24.10;56.20
3868;DHT22;1949;48.152;11.528;2023-07-29T15:29:23;24.20;56.30
3868;DHT22;1949;48.152;11.528;2023-07-29T15:31:48;24.10;56.10
3868;DHT22;1949;48.152;11.528;2023-07-29T15:34:15;24.20;56.00
3868;DHT22;1949;48.152;11.528;2023-07-29T15:36:41;24.20;55.90
3868;DHT22;1949;48.152;11.528;2023-07-29T15:39:07;24.10;55.80
3868;DHT22;1949;48.152;11.528;2023-07-29T15:41:35;24.10;56.00
3868;DHT22;1949;48.152;11.528;2023-07-29T15:44:02;24.10;55.90
3868;DHT22;1949;48.152;11.528;2023-07-29T15:46:28;24.10;56.00
3868;DHT22;1949;48.152;11.528;2023-07-29T15:48:55;24.10;56.00
3868;DHT22;1949;48.152;11.528;2023-07-29T15:51:26;24.10;55.90
3868;DHT22;1949;48.152;11.528;2023-07-29T15:53:52;24.10;56.00
3868;DHT22;1949;48.152;11.528;2023-07-29T15:56:17;24.10;56.00
3868;DHT22;1949;48.152;11.528;2023-07-29T15:58:43;24.10;55.90
3868;DHT22;1949;48.152;11.528;2023-07-29T16:01:10;24.10;56.00
3868;DHT22;1949;48.152;11.528;2023-07-29T16:03:36;24.20;56.20
3868;DHT22;1949;48.152;11.528;2023-07-29T16:06:06;24.20;56.20
3868;DHT22;1949;48.152;11.528;2023-07-29T16:08:33;24.20;56.20
3868;DHT22;1949;48.152;11.528;2023-07-29T16:10:59;24.30;56.30
3868;DHT22;1949;48.152;11.528;2023-07-29T16:13:25;24.30;56.20
3868;DHT22;1949;48.152;11.528;2023-07-29T16:15:50;24.40;56.30
3868;DHT22;1949;48.152;11.528;2023-07-29T16:18:17;24.40;56.30